createdAt,value
2018-06-25T00:00:39.980Z,6.57
2018-06-25T00:03:10.226Z,6.77
2018-06-25T00:05:40.515Z,7.30
2018-06-25T00:08:10.853Z,8.03
2018-06-25T00:10:41.100Z,7.17
2018-06-25T00:13:11.518Z,7.70
2018-06-25T00:15:41.961Z,8.93
2018-06-25T00:18:12.336Z,8.70
2018-06-25T00:20:42.692Z,9.33
2018-06-25T00:23:12.983Z,9.40
2018-06-25T00:25:43.503Z,10.10
2018-06-25T00:28:13.855Z,10.87
2018-06-25T00:30:44.296Z,9.73
2018-06-25T00:33:14.624Z,10.50
2018-06-25T00:35:45.015Z,12.90
2018-06-25T00:38:15.338Z,8.83
2018-06-25T00:40:45.622Z,9.90
2018-06-25T00:43:15.980Z,8.73
2018-06-25T00:45:46.332Z,10.67
2018-06-25T00:48:16.679Z,13.50
2018-06-25T00:50:47.034Z,9.10
2018-06-25T00:53:17.314Z,9.63
2018-06-25T00:55:47.740Z,11.27
2018-06-25T00:58:18.073Z,9.13
2018-06-25T01:00:48.380Z,12.20
2018-06-25T01:03:19.513Z,11.40
2018-06-25T01:05:49.884Z,11.57
2018-06-25T01:08:20.201Z,10.30
2018-06-25T01:10:50.604Z,10.83
2018-06-25T01:16:18.706Z,12.30
2018-06-25T01:18:49.052Z,13.77
2018-06-25T01:21:20.187Z,16.20
2018-06-25T01:23:50.600Z,16.10
2018-06-25T01:26:20.951Z,18.87
2018-06-25T01:28:51.261Z,15.20
2018-06-25T01:31:21.620Z,15.70
2018-06-25T01:33:52.111Z,14.20
2018-06-25T01:36:22.502Z,19.37
2018-06-25T01:38:52.503Z,18.83
2018-06-25T01:41:22.993Z,19.30
2018-06-25T01:43:53.373Z,20.37
2018-06-25T01:46:23.624Z,16.63
2018-06-25T01:48:53.732Z,15.20
2018-06-25T01:51:23.948Z,18.23
2018-06-25T01:53:54.542Z,15.73
2018-06-25T01:56:24.903Z,12.37
2018-06-25T01:58:55.215Z,16.30
2018-06-25T02:01:25.588Z,13.93
2018-06-25T02:03:56.057Z,17.93
2018-06-25T02:06:26.572Z,21.70
2018-06-25T02:08:57.022Z,15.27
2018-06-25T02:11:27.476Z,15.50
2018-06-25T02:13:57.819Z,13.23
2018-06-25T02:16:28.168Z,18.70
2018-06-25T02:18:58.468Z,15.00
2018-06-25T02:21:28.938Z,20.17
2018-06-25T02:23:59.267Z,25.33
2018-06-25T02:26:29.729Z,21.87
2018-06-25T02:29:00.060Z,21.40
2018-06-25T02:31:30.874Z,18.23
2018-06-25T02:34:01.005Z,17.27
2018-06-25T02:36:32.077Z,22.10
2018-06-25T02:39:02.449Z,19.63
2018-06-25T02:41:32.564Z,18.57
2018-06-25T02:44:02.833Z,20.57
2018-06-25T02:46:33.152Z,19.57
2018-06-25T02:49:03.483Z,18.10
2018-06-25T02:51:33.884Z,16.23
2018-06-25T02:54:04.252Z,15.13
2018-06-25T02:56:34.530Z,20.10
2018-06-25T02:59:04.904Z,20.33
2018-06-25T03:01:35.452Z,15.87
2018-06-25T03:04:05.800Z,19.40
2018-06-25T03:06:36.418Z,16.10
2018-06-25T03:09:09.565Z,14.57
2018-06-25T03:11:40.172Z,16.53
2018-06-25T03:14:10.481Z,17.93
2018-06-25T03:16:40.853Z,16.00
2018-06-25T03:19:11.127Z,16.00
2018-06-25T03:21:41.553Z,20.67
2018-06-25T03:24:11.864Z,18.37
2018-06-25T03:26:42.267Z,16.90
2018-06-25T03:29:12.794Z,17.57
2018-06-25T03:31:43.118Z,18.00
2018-06-25T03:34:13.461Z,17.40
2018-06-25T03:36:43.836Z,23.00
2018-06-25T03:39:13.932Z,14.17
2018-06-25T03:41:44.238Z,19.37
2018-06-25T03:44:14.335Z,17.63
2018-06-25T03:46:44.559Z,17.90
2018-06-25T03:49:14.926Z,15.63
2018-06-25T03:51:45.445Z,23.17
2018-06-25T03:54:15.790Z,17.83
2018-06-25T03:56:45.898Z,16.70
2018-06-25T03:59:16.119Z,14.80
2018-06-25T04:01:46.681Z,17.57
2018-06-25T04:04:16.956Z,17.13
2018-06-25T04:06:47.341Z,18.00
2018-06-25T04:09:17.493Z,21.20
2018-06-25T04:11:47.768Z,13.93
2018-06-25T04:14:18.073Z,16.03
2018-06-25T04:16:48.385Z,14.17
2018-06-25T04:19:18.694Z,13.50
2018-06-25T04:21:49.271Z,15.57
2018-06-25T04:24:19.648Z,18.13
2018-06-25T04:26:50.001Z,15.37
2018-06-25T04:29:20.436Z,13.93
2018-06-25T04:31:50.782Z,14.53
2018-06-25T04:34:21.258Z,13.73
2018-06-25T04:36:51.531Z,10.13
2018-06-25T04:39:21.984Z,16.53
2018-06-25T04:41:52.450Z,9.67
2018-06-25T04:44:22.762Z,12.47
2018-06-25T04:46:53.077Z,14.55
2018-06-25T04:49:23.452Z,12.37
2018-06-25T04:51:53.781Z,11.07
2018-06-25T04:54:24.147Z,10.83
2018-06-25T04:56:54.123Z,13.33
2018-06-25T04:59:25.329Z,12.17
2018-06-25T05:01:55.911Z,13.10
2018-06-25T05:04:26.033Z,14.20
2018-06-25T05:06:56.285Z,12.80
2018-06-25T05:09:26.628Z,13.90
2018-06-25T05:11:57.020Z,13.07
2018-06-25T05:14:27.066Z,13.57
2018-06-25T05:16:57.280Z,17.70
2018-06-25T05:19:27.595Z,14.70
2018-06-25T05:21:58.033Z,14.77
2018-06-25T05:24:28.143Z,14.83
2018-06-25T05:26:58.034Z,13.23
2018-06-25T05:29:28.304Z,14.47
2018-06-25T05:31:59.031Z,21.10
2018-06-25T05:34:29.348Z,14.93
2018-06-25T05:36:59.749Z,18.60
2018-06-25T05:39:30.105Z,16.03
2018-06-25T05:42:00.487Z,19.87
2018-06-25T05:44:30.775Z,21.40
2018-06-25T05:47:01.122Z,16.23
2018-06-25T05:49:31.413Z,24.37
2018-06-25T05:52:01.858Z,16.93
2018-06-25T05:54:32.175Z,15.53
2018-06-25T05:57:02.532Z,13.63
2018-06-25T05:59:32.840Z,12.00
2018-06-25T06:02:03.271Z,11.63
2018-06-25T06:04:33.491Z,12.17
2018-06-25T06:07:03.853Z,12.60
2018-06-25T06:09:33.876Z,10.03
2018-06-25T06:12:04.133Z,10.93
2018-06-25T06:14:34.424Z,11.43
2018-06-25T06:17:04.723Z,13.80
2018-06-25T06:19:35.072Z,12.83
2018-06-25T06:22:05.419Z,10.83
2018-06-25T06:24:35.778Z,18.00
2018-06-25T06:27:06.332Z,10.70
2018-06-25T06:29:36.771Z,9.43
2018-06-25T06:32:07.339Z,10.40
2018-06-25T06:34:37.704Z,7.47
2018-06-25T06:37:08.004Z,14.13
2018-06-25T06:39:38.368Z,7.73
2018-06-25T06:42:08.742Z,10.97
2018-06-25T06:44:39.096Z,8.43
2018-06-25T06:47:09.545Z,8.60
2018-06-25T06:49:39.852Z,10.00
2018-06-25T06:52:10.311Z,9.53
2018-06-25T06:54:40.611Z,6.90
2018-06-25T06:57:10.943Z,7.97
2018-06-25T06:59:41.235Z,7.07
2018-06-25T07:02:11.500Z,8.97
2018-06-25T07:04:41.578Z,9.03
2018-06-25T07:07:11.892Z,10.10
2018-06-25T07:09:42.217Z,16.10
2018-06-25T07:12:12.532Z,9.03
2018-06-25T07:14:42.882Z,7.90
2018-06-25T07:17:13.263Z,8.77
2018-06-25T07:19:43.620Z,8.20
2018-06-25T07:22:14.171Z,8.70
2018-06-25T07:24:44.553Z,11.07
2018-06-25T07:27:14.912Z,11.33
2018-06-25T07:29:45.320Z,12.10
2018-06-25T07:32:15.857Z,11.03
2018-06-25T07:34:46.189Z,12.17
2018-06-25T07:37:16.309Z,13.00
2018-06-25T07:39:46.566Z,14.73
2018-06-25T07:42:16.877Z,10.80
2018-06-25T07:44:47.195Z,15.83
2018-06-25T07:47:17.635Z,13.20
2018-06-25T07:49:47.912Z,15.60
2018-06-25T07:52:18.356Z,17.03
2018-06-25T07:54:48.825Z,14.20
2018-06-25T07:57:18.908Z,12.60
2018-06-25T07:59:49.146Z,14.57
2018-06-25T08:02:19.470Z,14.30
2018-06-25T08:04:49.804Z,17.13
2018-06-25T08:07:20.080Z,13.17
2018-06-25T08:09:50.571Z,20.93
2018-06-25T08:12:20.915Z,14.10
2018-06-25T08:14:51.748Z,12.23
2018-06-25T08:17:22.089Z,13.50
2018-06-25T08:19:52.446Z,17.07
2018-06-25T08:22:23.380Z,15.03
2018-06-25T08:24:53.847Z,16.23
2018-06-25T08:27:23.888Z,11.13
2018-06-25T08:29:54.091Z,13.77
2018-06-25T08:32:24.475Z,16.63
2018-06-25T08:34:54.886Z,15.53
2018-06-25T08:37:25.115Z,16.33
2018-06-25T08:39:55.594Z,13.40
2018-06-25T08:42:26.192Z,17.50
2018-06-25T08:44:56.551Z,19.43
2018-06-25T08:47:26.944Z,9.23
2018-06-25T08:49:57.317Z,13.00
2018-06-25T08:52:27.719Z,8.50
2018-06-25T08:54:58.047Z,11.43
2018-06-25T08:57:28.473Z,10.00
2018-06-25T08:59:58.808Z,8.20
2018-06-25T09:02:29.219Z,11.13
2018-06-25T09:04:59.524Z,9.50
2018-06-25T09:07:29.828Z,8.30
2018-06-25T09:10:00.228Z,9.97
2018-06-25T09:12:30.629Z,12.90
2018-06-25T09:15:01.084Z,13.93
2018-06-25T09:17:31.431Z,12.43
2018-06-25T09:20:01.759Z,6.63
2018-06-25T09:22:32.172Z,5.50
2018-06-25T09:25:02.236Z,6.83
2018-06-25T09:27:37.783Z,9.13
2018-06-25T09:30:09.172Z,5.67
2018-06-25T09:32:39.636Z,5.67
2018-06-25T09:35:10.069Z,5.50
2018-06-25T09:37:40.057Z,9.63
2018-06-25T09:40:10.307Z,11.80
2018-06-25T09:42:40.655Z,7.37
2018-06-25T09:45:12.105Z,6.83
2018-06-25T09:47:42.344Z,6.10
2018-06-25T09:50:12.487Z,7.30
2018-06-25T09:52:42.681Z,8.93
2018-06-25T09:55:13.172Z,5.90
2018-06-25T09:57:43.484Z,12.93
2018-06-25T10:00:17.977Z,10.33
2018-06-25T10:02:48.342Z,6.47
2018-06-25T10:05:18.463Z,5.50
2018-06-25T10:07:48.716Z,9.80
2018-06-25T10:10:18.965Z,7.73
2018-06-25T10:12:49.284Z,6.00
2018-06-25T10:15:19.681Z,11.90
2018-06-25T10:17:49.895Z,8.03
2018-06-25T10:20:20.255Z,7.80
2018-06-25T10:22:50.557Z,6.50
2018-06-25T10:25:20.978Z,10.47
2018-06-25T10:27:51.417Z,7.73
2018-06-25T10:30:21.816Z,6.07
2018-06-25T10:32:51.803Z,5.10
2018-06-25T10:35:21.977Z,5.97
2018-06-25T10:37:52.566Z,5.27
2018-06-25T10:40:22.958Z,7.30
2018-06-25T10:42:53.282Z,6.40
2018-06-25T10:45:23.583Z,7.33
2018-06-25T10:47:54.175Z,9.20
2018-06-25T10:50:24.263Z,5.93
2018-06-25T10:52:54.154Z,5.63
2018-06-25T10:55:24.490Z,6.47
2018-06-25T10:57:54.982Z,8.30
2018-06-25T11:00:25.520Z,8.90
2018-06-25T11:02:55.756Z,6.13
2018-06-25T11:05:26.182Z,7.47
2018-06-25T11:07:56.531Z,7.00
2018-06-25T11:10:26.892Z,7.53
2018-06-25T11:12:57.649Z,6.73
2018-06-25T11:15:28.010Z,7.20
2018-06-25T11:17:58.507Z,5.83
2018-06-25T11:20:28.566Z,5.93
2018-06-25T11:22:58.892Z,8.20
2018-06-25T11:25:29.511Z,7.10
2018-06-25T11:27:59.776Z,6.87
2018-06-25T11:30:30.097Z,5.07
2018-06-25T11:33:00.418Z,8.63
2018-06-25T11:35:30.663Z,9.67
2018-06-25T11:38:00.859Z,5.87
2018-06-25T11:40:31.191Z,5.00
2018-06-25T11:43:02.524Z,6.87
2018-06-25T11:45:33.026Z,5.00
2018-06-25T11:48:03.297Z,5.33
2018-06-25T11:50:33.724Z,9.43
2018-06-25T11:53:04.076Z,4.37
2018-06-25T11:55:34.480Z,7.80
2018-06-25T11:58:04.905Z,8.27
2018-06-25T12:00:35.396Z,9.53
2018-06-25T12:03:06.060Z,4.47
2018-06-25T12:05:36.051Z,4.40
2018-06-25T12:08:06.270Z,5.50
2018-06-25T12:10:36.576Z,6.10
2018-06-25T12:13:07.022Z,4.30
2018-06-25T12:15:37.349Z,4.83
2018-06-25T12:18:07.752Z,5.13
2018-06-25T12:20:38.067Z,4.50
2018-06-25T12:23:08.891Z,11.53
2018-06-25T12:25:39.144Z,4.20
2018-06-25T12:28:09.449Z,8.30
2018-06-25T12:30:39.714Z,3.80
2018-06-25T12:33:10.287Z,5.83
2018-06-25T12:35:40.612Z,9.23
2018-06-25T12:38:10.979Z,6.47
2018-06-25T12:40:41.351Z,2.60
2018-06-25T12:43:11.803Z,3.50
2018-06-25T12:45:42.147Z,4.43
2018-06-25T12:48:12.386Z,4.70
2018-06-25T12:50:42.706Z,4.97
2018-06-25T12:53:13.095Z,6.73
2018-06-25T12:55:43.399Z,3.60
2018-06-25T12:58:13.671Z,4.63
2018-06-25T13:00:43.965Z,3.50
2018-06-25T13:03:14.407Z,4.60
2018-06-25T13:05:44.707Z,5.53
2018-06-25T13:08:15.084Z,3.60
2018-06-25T13:10:45.498Z,2.57
2018-06-25T13:13:15.844Z,2.37
2018-06-25T13:15:45.908Z,7.00
2018-06-25T13:18:16.161Z,2.43
2018-06-25T13:20:46.491Z,2.73
2018-06-25T13:23:16.587Z,3.53
2018-06-25T13:25:46.916Z,2.90
2018-06-25T13:28:17.236Z,7.63
2018-06-25T13:30:47.247Z,11.10
2018-06-25T13:33:17.398Z,6.33
2018-06-25T13:35:47.784Z,12.33
2018-06-25T13:38:17.897Z,3.97
2018-06-25T13:40:48.100Z,5.60
2018-06-25T13:43:18.463Z,3.00
2018-06-25T13:45:48.814Z,4.70
2018-06-25T13:48:19.160Z,5.50
2018-06-25T13:50:49.400Z,3.80
2018-06-25T13:53:20.135Z,3.80
2018-06-25T13:55:50.541Z,2.77
2018-06-25T13:58:20.883Z,2.47
2018-06-25T14:00:51.186Z,3.67
2018-06-25T14:03:21.991Z,3.77
2018-06-25T14:05:52.464Z,4.00
2018-06-25T14:08:22.745Z,2.47
2018-06-25T14:10:53.372Z,2.80
2018-06-25T14:13:23.716Z,2.73
2018-06-25T14:15:54.034Z,2.57
2018-06-25T14:18:24.318Z,2.60
2018-06-25T14:20:54.698Z,6.53
2018-06-25T14:23:24.987Z,2.23
2018-06-25T14:26:01.119Z,3.00
2018-06-25T14:28:31.600Z,3.77
2018-06-25T14:31:07.561Z,2.77
2018-06-25T14:33:40.981Z,13.27
2018-06-25T14:36:11.751Z,4.73
2018-06-25T14:38:42.092Z,5.03
2018-06-25T14:41:12.359Z,2.63
2018-06-25T14:43:42.930Z,2.17
2018-06-25T14:46:13.279Z,3.50
2018-06-25T14:48:43.609Z,3.13
2018-06-25T14:51:13.927Z,2.07
2018-06-25T14:53:43.905Z,2.63
2018-06-25T14:56:14.181Z,4.73
2018-06-25T14:58:44.349Z,2.90
2018-06-25T15:01:14.703Z,2.40
2018-06-25T15:03:45.015Z,2.50
2018-06-25T15:06:16.580Z,2.63
2018-06-25T15:08:46.895Z,4.60
2018-06-25T15:11:17.268Z,2.67
2018-06-25T15:13:47.608Z,2.50
2018-06-25T15:16:17.941Z,2.20
2018-06-25T15:18:48.477Z,5.13
2018-06-25T15:21:18.785Z,3.13
2018-06-25T15:23:49.990Z,3.20
2018-06-25T15:26:20.272Z,3.80
2018-06-25T15:28:50.535Z,3.50
2018-06-25T15:31:20.853Z,11.03
2018-06-25T15:33:51.247Z,2.30
2018-06-25T15:36:21.233Z,3.57
2018-06-25T15:38:51.416Z,3.03
2018-06-25T15:41:21.693Z,2.30
2018-06-25T15:43:52.112Z,3.07
2018-06-25T15:46:22.383Z,2.33
2018-06-25T15:48:53.016Z,10.80
2018-06-25T15:51:23.356Z,5.83
2018-06-25T15:53:53.696Z,6.00
2018-06-25T15:56:24.171Z,2.77
2018-06-25T15:58:54.563Z,3.00
2018-06-25T16:01:24.955Z,2.67
2018-06-25T16:03:55.523Z,4.20
2018-06-25T16:06:26.084Z,6.73
2018-06-25T16:08:56.415Z,4.27
2018-06-25T16:11:26.740Z,8.87
2018-06-25T16:13:56.807Z,6.10
2018-06-25T16:16:26.766Z,7.73
2018-06-25T16:18:57.075Z,12.07
2018-06-25T16:21:27.428Z,8.03
2018-06-25T16:23:57.788Z,7.73
2018-06-25T16:26:27.754Z,5.50
2018-06-25T16:28:58.094Z,11.63
2018-06-25T16:31:28.363Z,8.97
2018-06-25T16:33:58.842Z,18.53
2018-06-25T16:36:29.225Z,4.40
2018-06-25T16:38:59.547Z,8.00
2018-06-25T16:41:29.879Z,4.90
2018-06-25T16:44:00.241Z,5.60
2018-06-25T16:46:30.967Z,9.57
2018-06-25T16:49:01.556Z,5.43
2018-06-25T16:51:31.917Z,4.57
2018-06-25T16:54:02.311Z,9.83
2018-06-25T16:56:32.644Z,4.67
2018-06-25T16:59:03.501Z,9.00
2018-06-25T17:01:34.207Z,7.43
2018-06-25T17:04:04.532Z,5.53
2018-06-25T17:06:34.920Z,6.97
2018-06-25T17:09:08.393Z,4.47
2018-06-25T17:11:38.552Z,8.67
2018-06-25T17:14:08.874Z,5.70
2018-06-25T17:16:39.211Z,6.87
2018-06-25T17:19:10.918Z,6.63
2018-06-25T17:21:41.258Z,5.13
2018-06-25T17:24:11.608Z,3.60
2018-06-25T17:26:41.958Z,2.60
2018-06-25T17:29:12.338Z,5.20
2018-06-25T17:31:42.612Z,21.93
2018-06-25T17:34:13.055Z,6.60
2018-06-25T17:36:43.492Z,6.57
2018-06-25T17:39:13.791Z,6.20
2018-06-25T17:41:44.056Z,10.73
2018-06-25T17:44:14.410Z,2.70
2018-06-25T17:46:44.912Z,3.33
2018-06-25T17:49:15.265Z,3.50
2018-06-25T17:51:45.633Z,4.73
2018-06-25T17:54:15.961Z,3.30
2018-06-25T17:56:46.557Z,4.63
2018-06-25T17:59:16.913Z,3.80
2018-06-25T18:01:47.333Z,5.80
2018-06-25T18:04:17.364Z,7.78
2018-06-25T18:06:47.577Z,6.33
2018-06-25T18:09:17.902Z,5.90
2018-06-25T18:11:48.381Z,2.70
2018-06-25T18:14:18.676Z,2.87
2018-06-25T18:16:48.976Z,5.13
2018-06-25T18:19:19.331Z,3.73
2018-06-25T18:21:49.660Z,6.33
2018-06-25T18:24:19.943Z,4.57
2018-06-25T18:26:50.347Z,4.87
2018-06-25T18:29:20.782Z,5.63
2018-06-25T18:31:51.236Z,5.67
2018-06-25T18:34:21.548Z,8.95
2018-06-25T18:36:51.568Z,9.13
2018-06-25T18:39:21.848Z,8.70
2018-06-25T18:41:52.361Z,4.87
2018-06-25T18:44:22.737Z,5.70
2018-06-25T18:46:53.528Z,5.97
2018-06-25T18:49:23.978Z,10.88
2018-06-25T18:51:54.326Z,11.40
2018-06-25T18:54:24.447Z,12.43
2018-06-25T18:56:54.699Z,7.60
2018-06-25T18:59:25.175Z,9.60
2018-06-25T19:01:55.838Z,12.00
2018-06-25T19:04:25.947Z,10.30
2018-06-25T19:06:56.295Z,7.17
2018-06-25T19:09:27.220Z,7.53
2018-06-25T19:11:57.618Z,13.40
2018-06-25T19:14:28.044Z,9.67
2018-06-25T19:16:58.385Z,4.93
2018-06-25T19:19:28.964Z,5.87
2018-06-25T19:21:59.346Z,9.23
2018-06-25T19:24:29.802Z,6.53
2018-06-25T19:27:00.952Z,10.70
2018-06-25T19:29:31.476Z,6.20
2018-06-25T19:32:01.879Z,9.10
2018-06-25T19:34:32.412Z,15.77
2018-06-25T19:37:02.466Z,8.00
2018-06-25T19:39:32.828Z,16.23
2018-06-25T19:42:03.269Z,10.30
2018-06-25T19:44:33.795Z,20.30
2018-06-25T19:47:04.188Z,13.00
2018-06-25T19:49:34.534Z,18.57
2018-06-25T19:52:04.944Z,12.50
2018-06-25T19:54:35.414Z,7.83
2018-06-25T19:57:06.017Z,8.93
2018-06-25T19:59:36.599Z,11.47
2018-06-25T20:02:06.959Z,9.70
2018-06-25T20:04:37.037Z,12.43
2018-06-25T20:07:07.369Z,12.40
2018-06-25T20:09:37.732Z,9.27
2018-06-25T20:12:08.115Z,12.27
2018-06-25T20:14:38.546Z,14.53
2018-06-25T20:17:08.954Z,16.60
2018-06-25T20:19:39.487Z,11.07
2018-06-25T20:22:09.968Z,9.13
2018-06-25T20:24:40.324Z,8.90
2018-06-25T20:27:10.315Z,21.00
2018-06-25T20:29:40.608Z,20.60
2018-06-25T20:32:11.101Z,33.40
2018-06-25T20:34:41.498Z,16.03
2018-06-25T20:37:11.828Z,30.03
2018-06-25T20:39:42.140Z,13.97
2018-06-25T20:42:12.164Z,22.27
2018-06-25T20:44:42.446Z,17.50
2018-06-25T20:47:12.770Z,15.13
2018-06-25T20:49:43.162Z,14.73
2018-06-25T20:52:13.473Z,14.80
2018-06-25T20:54:43.966Z,20.17
2018-06-25T20:57:15.274Z,17.37
2018-06-25T20:59:46.032Z,15.90
2018-06-25T21:02:16.352Z,16.20
2018-06-25T21:04:46.787Z,16.87
2018-06-25T21:07:16.910Z,18.30
2018-06-25T21:09:47.126Z,14.93
2018-06-25T21:12:17.533Z,20.47
2018-06-25T21:14:47.483Z,14.50
2018-06-25T21:17:17.665Z,18.77
2018-06-25T21:19:47.994Z,24.57
2018-06-25T21:22:18.250Z,15.97
2018-06-25T21:24:48.552Z,17.13
2018-06-25T21:27:19.003Z,22.00
2018-06-25T21:29:49.299Z,17.47
2018-06-25T21:32:19.632Z,19.00
2018-06-25T21:34:49.913Z,18.37
2018-06-25T21:37:20.295Z,21.30
2018-06-25T21:39:50.623Z,21.17
2018-06-25T21:42:20.891Z,20.60
2018-06-25T21:44:51.201Z,18.40
2018-06-25T21:47:21.816Z,21.23
2018-06-25T21:49:52.218Z,14.80
2018-06-25T21:52:22.966Z,16.20
2018-06-25T21:54:53.195Z,19.67
2018-06-25T21:57:23.586Z,18.80
2018-06-25T21:59:54.067Z,25.13
2018-06-25T22:02:24.460Z,28.63
2018-06-25T22:04:54.784Z,22.03
2018-06-25T22:07:25.061Z,21.70
2018-06-25T22:09:55.340Z,17.67
2018-06-25T22:12:25.768Z,29.83
2018-06-25T22:14:56.303Z,16.70
2018-06-25T22:17:26.595Z,23.50
2018-06-25T22:19:56.980Z,22.27
2018-06-25T22:22:27.364Z,21.40
2018-06-25T22:24:57.691Z,21.40
2018-06-25T22:27:27.984Z,36.13
2018-06-25T22:29:58.438Z,21.43
2018-06-25T22:32:29.037Z,21.73
2018-06-25T22:34:59.311Z,20.40
2018-06-25T22:37:29.625Z,21.03
2018-06-25T22:39:59.726Z,25.90
2018-06-25T22:42:31.547Z,25.33
2018-06-25T22:45:02.021Z,15.50
2018-06-25T22:47:32.456Z,20.80
2018-06-25T22:50:02.940Z,29.77
2018-06-25T22:52:33.288Z,30.17
2018-06-25T22:55:03.695Z,31.87
2018-06-25T22:57:34.015Z,27.43
2018-06-25T23:00:04.576Z,20.73
2018-06-25T23:02:34.904Z,25.97
2018-06-25T23:05:05.085Z,23.57
2018-06-25T23:07:35.284Z,22.17
2018-06-25T23:10:05.454Z,23.33
2018-06-25T23:12:35.636Z,17.23
2018-06-25T23:15:06.032Z,19.27
2018-06-25T23:17:36.030Z,25.70
2018-06-25T23:20:06.289Z,24.30
2018-06-25T23:22:36.665Z,21.93
2018-06-25T23:25:06.971Z,22.80
2018-06-25T23:27:37.199Z,20.67
2018-06-25T23:30:07.600Z,22.23
2018-06-25T23:32:38.016Z,20.13
2018-06-25T23:35:08.407Z,21.80
2018-06-25T23:37:38.780Z,18.70
2018-06-25T23:40:09.223Z,19.40
2018-06-25T23:42:39.563Z,28.00
2018-06-25T23:45:09.932Z,19.50
2018-06-25T23:47:40.328Z,17.90
2018-06-25T23:50:10.815Z,20.87
2018-06-25T23:52:41.070Z,20.50
2018-06-25T23:55:11.362Z,19.37
2018-06-25T23:57:41.630Z,23.97
